Time;durP1;ratioP1;P1;durP2;ratioP2;P2;SDS_P1;SDS_P2;PMS_P1;PMS_P2;Temp;Humidity;BMP_temperature;BMP_pressure;BME280_temperature;BME280_humidity;BME280_pressure;Samples;Min_cycle;Max_cycle;Signal;HPM_P1;HPM_P2
2022/05/15 00:01:24;;;;;;;14.18;8.32;;;;;;;11.95;80.33;93627.63;5104987;28;20542;-46
2022/05/15 00:03:50;;;;;;;9.88;7.18;;;;;;;11.87;81.06;93623.38;5092460;28;20028;-45
2022/05/15 00:06:16;;;;;;;11.60;6.53;;;;;;;11.94;81.27;93623.38;5092312;28;20404;-48
2022/05/15 00:08:41;;;;;;;7.00;6.30;;;;;;;11.89;80.30;93621.53;5092358;28;20028;-48
2022/05/15 00:11:09;;;;;;;8.13;6.43;;;;;;;11.76;80.35;93629.28;5091816;28;20572;-46
2022/05/15 00:13:35;;;;;;;7.03;6.22;;;;;;;11.71;80.49;93616.38;5092222;28;20114;-46
2022/05/15 00:16:01;;;;;;;8.90;6.25;;;;;;;11.84;79.70;93621.72;5092106;28;20024;-48
2022/05/15 00:18:27;;;;;;;10.93;7.43;;;;;;;11.88;78.97;93622.84;5090599;28;20410;-48
2022/05/15 00:20:52;;;;;;;8.18;6.47;;;;;;;12.02;78.63;93618.59;5097800;28;20047;-52
2022/05/15 00:23:20;;;;;;;11.70;7.35;;;;;;;11.97;78.65;93616.75;5112060;28;20026;-49
2022/05/15 00:25:45;;;;;;;11.02;7.60;;;;;;;11.77;80.05;93619.69;5112324;28;20069;-48
2022/05/15 00:28:11;;;;;;;17.20;9.27;;;;;;;11.76;79.56;93616.19;5112302;28;20065;-47
2022/05/15 00:30:37;;;;;;;22.67;12.40;;;;;;;11.80;79.88;93622.06;5111869;28;20552;-47
2022/05/15 00:33:04;;;;;;;22.40;12.35;;;;;;;11.70;81.06;93604.56;5111870;28;20020;-46
2022/05/15 00:35:29;;;;;;;20.48;12.85;;;;;;;11.78;81.45;93621.19;5112224;28;20031;-48
2022/05/15 00:37:55;;;;;;;18.98;11.38;;;;;;;11.79;81.28;93619.88;5111811;28;20071;-48
2022/05/15 00:40:21;;;;;;;17.40;11.77;;;;;;;11.93;79.71;93621.19;5111800;28;20020;-47
2022/05/15 00:42:47;;;;;;;15.35;11.23;;;;;;;11.62;80.34;93620.41;5111770;28;20031;-47
2022/05/15 00:45:15;;;;;;;24.15;11.35;;;;;;;11.68;81.70;93618.22;5111981;28;20054;-48
2022/05/15 00:47:41;;;;;;;20.35;11.85;;;;;;;11.74;82.18;93616.00;5112006;28;20031;-48
2022/05/15 00:50:11;;;;;;;20.88;11.73;;;;;;;11.72;81.62;93607.50;5111467;28;20498;-47
2022/05/15 00:52:38;;;;;;;15.02;11.20;;;;;;;11.56;80.52;93617.06;5093387;28;20423;-46
2022/05/15 00:55:07;;;;;;;22.10;11.27;;;;;;;11.50;79.97;93616.50;5111454;28;20782;-46
2022/05/15 00:57:51;;;;;;;19.17;11.82;;;;;;;11.49;80.19;93609.50;5108614;28;20031;-46
2022/05/15 01:00:17;;;;;;;18.10;11.93;;;;;;;11.35;81.40;93614.44;5089630;28;20089;-48
2022/05/15 01:03:14;;;;;;;18.42;11.77;;;;;;;11.30;80.50;93609.09;5091364;28;20028;-47
2022/05/15 01:05:49;;;;;;;16.15;9.82;;;;;;;11.22;80.26;93616.63;5091032;28;20086;-47
2022/05/15 01:08:14;;;;;;;14.52;10.23;;;;;;;11.08;80.96;93609.78;5090040;28;20052;-49
2022/05/15 01:10:46;;;;;;;18.58;10.38;;;;;;;10.89;81.50;93563.13;5090845;28;20056;-48
2022/05/15 01:13:13;;;;;;;20.13;11.45;;;;;;;11.25;81.34;93604.47;5089675;28;20025;-47
2022/05/15 01:15:40;;;;;;;17.73;11.38;;;;;;;11.35;80.41;93614.44;5090784;28;20506;-48
2022/05/15 01:18:06;;;;;;;18.08;9.75;;;;;;;11.45;79.68;93606.38;5090636;28;20034;-48
2022/05/15 01:20:32;;;;;;;30.92;11.60;;;;;;;11.42;79.57;93608.19;5096196;28;20012;-47
2022/05/15 01:22:58;;;;;;;18.92;10.73;;;;;;;11.32;79.80;93598.22;5091714;28;20027;-47
2022/05/15 01:25:28;;;;;;;16.27;9.52;;;;;;;11.14;79.50;93605.56;5097320;28;20023;-48
2022/05/15 01:27:54;;;;;;;;;;;;;;;11.14;79.62;93611.06;5111825;28;20032;-47
2022/05/15 01:30:21;;;;;;;14.13;9.30;;;;;;;11.01;80.79;93608.47;5110883;28;19914;-48
2022/05/15 01:32:46;;;;;;;12.77;9.05;;;;;;;11.06;81.25;93612.34;5104249;28;20051;-48
2022/05/15 01:35:12;;;;;;;17.30;9.40;;;;;;;11.14;80.80;93608.31;5090466;28;20028;-49
2022/05/15 01:37:37;;;;;;;17.83;8.38;;;;;;;11.12;80.57;93610.88;5090485;28;20043;-48
2022/05/15 01:40:04;;;;;;;14.55;9.30;;;;;;;11.10;80.46;93609.97;5090580;28;20103;-47
2022/05/15 01:42:30;;;;;;;18.15;9.77;;;;;;;10.95;81.45;93609.91;5090731;28;20036;-50
2022/05/15 01:44:56;;;;;;;12.65;8.88;;;;;;;10.88;nan;93607.84;5090370;28;20032;-48
2022/05/15 01:47:21;;;;;;;22.48;7.95;;;;;;;10.94;81.16;93591.84;5090355;28;20089;-48
2022/05/15 01:49:47;;;;;;;17.77;8.10;;;;;;;11.02;81.12;93609.91;5090660;28;20030;-49
2022/05/15 01:52:13;;;;;;;11.60;7.57;;;;;;;10.87;81.01;93620.91;5090552;28;20031;-51
2022/05/15 01:54:39;;;;;;;10.48;7.60;;;;;;;10.92;80.73;93613.75;5090247;28;20050;-48
2022/05/15 01:57:05;;;;;;;19.15;7.85;;;;;;;10.79;82.10;93611.13;5090457;28;20028;-51
2022/05/15 01:59:30;;;;;;;31.35;8.30;;;;;;;10.92;83.48;93611.00;5108310;28;20123;-51
2022/05/15 02:01:55;;;;;;;35.47;11.07;;;;;;;11.06;84.14;93620.63;5110871;28;20028;-49
2022/05/15 02:04:21;;;;;;;36.85;10.43;;;;;;;11.00;84.00;93600.72;5110821;28;20031;-50
2022/05/15 02:06:47;;;;;;;28.30;10.25;;;;;;;10.93;84.28;93618.75;5110462;28;20468;-46
2022/05/15 02:09:12;;;;;;;19.40;8.10;;;;;;;10.94;82.08;93613.94;5101848;28;20027;-47
2022/05/15 02:11:38;;;;;;;27.77;9.90;;;;;;;10.85;83.18;93617.97;5101473;28;20027;-48
2022/05/15 02:14:04;;;;;;;23.38;8.90;;;;;;;10.82;82.32;93623.84;5100662;28;20028;-48
2022/05/15 02:16:31;;;;;;;14.90;7.78;;;;;;;10.69;81.76;93619.19;5110422;28;20135;-49
2022/05/15 02:18:56;;;;;;;17.60;8.02;;;;;;;10.66;81.20;93617.53;5099851;28;20463;-48
2022/05/15 02:21:22;;;;;;;13.32;7.10;;;;;;;10.55;80.95;93626.09;5100075;28;20057;-47
2022/05/15 02:23:47;;;;;;;10.10;7.25;;;;;;;10.46;81.83;93632.16;5110284;28;20031;-47
2022/05/15 02:26:13;;;;;;;14.70;7.05;;;;;;;10.34;81.78;93631.72;5110305;28;20081;-47
2022/05/15 02:28:38;;;;;;;9.80;7.10;;;;;;;10.42;81.57;93628.97;5110269;28;20156;-49
2022/05/15 02:31:05;;;;;;;17.92;7.25;;;;;;;10.33;81.75;93635.03;5110532;28;20023;-47
2022/05/15 02:33:30;;;;;;;17.98;7.07;;;;;;;10.38;81.52;93634.84;5113377;28;20513;-49
2022/05/15 02:35:55;;;;;;;11.05;7.03;;;;;;;10.46;80.60;93635.63;5114167;28;20177;-51
2022/05/15 02:38:21;;;;;;;26.08;10.15;;;;;;;10.24;81.78;93639.00;5112895;28;20027;-50
2022/05/15 02:40:47;;;;;;;13.55;6.72;;;;;;;10.27;81.52;93637.91;5114279;28;20024;-48
2022/05/15 02:43:13;;;;;;;13.43;7.90;;;;;;;10.32;81.88;93636.28;5114030;28;20523;-48
2022/05/15 02:45:38;;;;;;;42.60;7.18;;;;;;;10.28;82.29;93641.41;5114062;28;20023;-50
2022/05/15 02:48:04;;;;;;;39.28;7.78;;;;;;;10.16;82.41;93648.50;5114182;28;20035;-48
2022/05/15 02:53:13;;;;;;;34.08;14.10;;;;;;;10.20;82.84;93657.19;5114245;28;20132;-47
2022/05/15 02:55:39;;;;;;;16.33;9.90;;;;;;;10.25;82.26;93646.00;5114215;28;20031;-50
2022/05/15 02:58:04;;;;;;;25.00;10.63;;;;;;;10.29;81.34;93651.91;5107297;28;20031;-50
2022/05/15 03:00:30;;;;;;;24.30;9.65;;;;;;;10.18;81.86;93645.97;5093123;28;20044;-48
2022/05/15 03:02:56;;;;;;;39.28;9.60;;;;;;;10.14;82.43;93646.28;5093300;28;20028;-47
2022/05/15 03:05:21;;;;;;;15.82;8.95;;;;;;;10.22;81.55;93646.34;5093259;28;20024;-47
2022/05/15 03:07:49;;;;;;;12.93;8.00;;;;;;;10.11;81.34;93647.38;5099958;28;20034;-48
2022/05/15 03:10:17;;;;;;;12.05;7.68;;;;;;;10.07;80.26;93649.69;5113474;28;20035;-48
2022/05/15 03:12:44;;;;;;;21.70;7.30;;;;;;;10.12;79.47;93646.09;5096793;28;20420;-48
2022/05/15 03:15:14;;;;;;;17.10;8.43;;;;;;;9.89;79.54;93634.13;5100836;28;20038;-50
2022/05/15 03:17:41;;;;;;;17.92;10.20;;;;;;;10.06;79.13;93651.00;5106651;28;20027;-52
2022/05/15 03:20:07;;;;;;;13.70;7.72;;;;;;;10.09;78.59;93647.13;5092844;28;20055;-50
2022/05/15 03:22:33;;;;;;;11.77;8.40;;;;;;;10.13;78.48;93646.84;5095108;28;20028;-50
2022/05/15 03:24:58;;;;;;;15.23;8.98;;;;;;;9.99;79.75;93657.19;5113506;28;20072;-52
2022/05/15 03:27:24;;;;;;;15.63;8.98;;;;;;;9.95;81.36;93654.03;5113574;28;20480;-51
2022/05/15 03:29:49;;;;;;;12.38;8.93;;;;;;;10.04;80.77;93658.31;5113144;28;20024;-49
2022/05/15 03:32:14;;;;;;;24.30;9.27;;;;;;;10.14;80.21;93662.84;5113417;28;20032;-48
2022/05/15 03:34:40;;;;;;;30.17;9.38;;;;;;;10.06;81.01;93655.75;5112775;28;20024;-49
2022/05/15 03:37:05;;;;;;;16.80;9.95;;;;;;;10.06;81.28;93662.03;5113329;28;20024;-48
2022/05/15 03:39:31;;;;;;;12.25;8.40;;;;;;;10.25;81.69;93662.56;5113258;28;20027;-49
2022/05/15 03:41:56;;;;;;;11.45;8.27;;;;;;;10.38;81.07;93661.72;5113212;28;20488;-48
2022/05/15 03:44:22;;;;;;;12.30;8.75;;;;;;;10.38;81.08;93654.19;5102108;28;20462;-50
2022/05/15 03:46:47;;;;;;;11.23;9.18;;;;;;;10.45;80.94;93650.72;5092474;28;20031;-50
2022/05/15 03:49:13;;;;;;;13.75;9.43;;;;;;;10.61;80.25;93665.38;5094011;28;20024;-49
2022/05/15 03:51:39;;;;;;;20.17;10.27;;;;;;;10.71;79.83;93662.81;5108752;28;20015;-47
2022/05/15 03:54:05;;;;;;;11.73;9.15;;;;;;;10.80;79.45;93660.31;5110983;28;20039;-46
2022/05/15 03:59:27;;;;;;;17.00;10.07;;;;;;;10.96;79.89;93655.59;5109022;28;20039;-47
2022/05/15 04:01:53;;;;;;;27.48;10.02;;;;;;;11.16;79.90;93660.25;5097614;28;20103;-47
2022/05/15 04:04:19;;;;;;;28.52;11.38;;;;;;;11.21;79.96;93657.34;5104926;28;20057;-47
2022/05/15 04:06:44;;;;;;;18.92;10.25;;;;;;;11.34;79.28;93665.50;5112386;28;20069;-46
2022/05/15 04:09:10;;;;;;;33.05;13.23;;;;;;;11.39;79.04;93672.16;5112641;28;20024;-47
2022/05/15 04:11:36;;;;;;;28.83;14.73;;;;;;;11.38;79.45;93674.16;5112533;28;20049;-46
2022/05/15 04:14:01;;;;;;;34.70;14.45;;;;;;;11.19;80.50;93675.75;5112093;28;20023;-47
2022/05/15 04:16:27;;;;;;;22.92;13.73;;;;;;;11.30;80.98;93672.66;5112055;28;20019;-49
2022/05/15 04:18:52;;;;;;;29.17;14.63;;;;;;;11.39;81.15;93680.44;5112152;28;20065;-47
2022/05/15 04:21:18;;;;;;;58.78;14.95;;;;;;;11.46;81.69;93681.75;5109782;28;20032;-48
2022/05/15 04:23:43;;;;;;;34.88;17.25;;;;;;;11.57;81.90;93681.38;5111573;28;20034;-48
2022/05/15 04:26:09;;;;;;;31.05;16.63;;;;;;;11.65;81.38;93684.94;5110490;28;20503;-49
2022/05/15 04:28:35;;;;;;;29.23;13.95;;;;;;;11.47;81.91;93652.81;5110477;28;20030;-47
2022/05/15 04:31:01;;;;;;;31.88;13.43;;;;;;;11.83;82.41;93679.06;5110110;28;20024;-46
2022/05/15 04:33:27;;;;;;;32.72;13.38;;;;;;;11.85;82.93;93678.53;5110462;28;20080;-49
2022/05/15 04:35:52;;;;;;;33.60;12.10;;;;;;;12.09;82.75;93689.81;5110671;28;20484;-47
2022/05/15 04:38:18;;;;;;;31.77;13.55;;;;;;;12.18;83.05;93685.75;5110474;28;20066;-47
2022/05/15 04:40:43;;;;;;;45.05;15.40;;;;;;;12.42;83.09;93696.25;5110447;28;20028;-48
2022/05/15 04:43:09;;;;;;;56.33;17.90;;;;;;;12.52;83.16;93686.09;5110431;28;20022;-49
2022/05/15 04:45:34;;;;;;;35.15;18.70;;;;;;;12.67;82.94;93688.09;5110396;28;20077;-47
2022/05/15 04:48:00;;;;;;;49.85;19.13;;;;;;;12.78;82.97;93690.47;5110335;28;20068;-48
2022/05/15 04:50:25;;;;;;;53.85;18.67;;;;;;;12.96;83.22;93694.88;5110371;28;20674;-47
2022/05/15 04:52:50;;;;;;;29.90;18.95;;;;;;;13.28;82.28;93697.00;5110243;28;20524;-48
2022/05/15 04:55:16;;;;;;;41.95;15.18;;;;;;;13.55;80.99;93698.03;5109226;28;20024;-47
2022/05/15 04:57:43;;;;;;;35.70;14.50;;;;;;;13.73;80.35;93688.47;5094551;28;20077;-46
2022/05/15 05:00:12;;;;;;;26.13;13.77;;;;;;;13.97;78.93;93695.38;5110119;28;20462;-50
2022/05/15 05:02:38;;;;;;;29.05;13.90;;;;;;;14.15;78.66;93696.91;5110601;28;20064;-52
2022/05/15 05:05:04;;;;;;;25.73;12.38;;;;;;;14.35;78.21;93699.38;5111248;28;20698;-47
2022/05/15 05:07:30;;;;;;;21.25;14.98;;;;;;;14.57;78.18;93700.50;5109645;28;20027;-49
2022/05/15 05:09:55;;;;;;;14.02;9.13;;;;;;;14.99;77.77;93697.69;5110606;28;20088;-50
2022/05/15 05:12:21;;;;;;;23.67;11.13;;;;;;;15.26;75.83;93698.50;5111553;28;20016;-48
2022/05/15 05:14:47;;;;;;;12.15;9.68;;;;;;;15.40;74.06;93694.06;5111211;28;20047;-50
2022/05/15 05:17:14;;;;;;;24.92;8.88;;;;;;;15.32;73.16;93687.88;5111127;28;20102;-49
2022/05/15 05:19:39;;;;;;;15.23;8.88;;;;;;;15.44;73.19;93690.91;5110020;28;20035;-48
2022/05/15 05:22:05;;;;;;;30.20;10.38;;;;;;;15.48;73.77;93691.25;5110717;28;20019;-48
2022/05/15 05:24:31;;;;;;;15.10;10.63;;;;;;;15.87;73.73;93670.69;5111019;28;20027;-48
2022/05/15 05:26:56;;;;;;;20.27;12.85;;;;;;;16.50;70.27;93690.19;5110653;28;20019;-48
2022/05/15 05:29:22;;;;;;;18.55;10.35;;;;;;;16.60;68.79;93696.53;5111010;28;20043;-50
2022/05/15 05:31:48;;;;;;;17.98;9.57;;;;;;;16.83;68.46;93696.16;5111153;28;20023;-48
2022/05/15 05:34:14;;;;;;;12.13;9.43;;;;;;;16.96;68.59;93698.50;5110884;28;20030;-50
2022/05/15 05:36:40;;;;;;;24.15;9.93;;;;;;;17.01;67.48;93697.50;5111163;28;20027;-50
2022/05/15 05:39:06;;;;;;;13.05;9.40;;;;;;;17.17;67.70;93698.69;5111135;28;20019;-50
2022/05/15 05:41:31;;;;;;;14.15;9.40;;;;;;;17.39;67.35;93695.44;5111092;28;20019;-52
2022/05/15 05:43:59;;;;;;;11.05;8.35;;;;;;;17.53;65.89;93687.41;5110740;28;20023;-51
2022/05/15 05:46:24;;;;;;;10.15;8.40;;;;;;;17.64;66.06;93700.78;5111050;28;20050;-48
2022/05/15 05:48:50;;;;;;;14.70;9.07;;;;;;;17.67;66.39;93699.56;5111005;28;20026;-51
2022/05/15 05:51:15;;;;;;;10.45;8.25;;;;;;;17.83;65.73;93695.16;5110954;28;20495;-51
2022/05/15 05:53:41;;;;;;;9.07;7.78;;;;;;;17.99;65.73;93698.38;5110988;28;20024;-50
2022/05/15 05:56:07;;;;;;;10.18;8.32;;;;;;;18.25;65.91;93693.88;5110619;28;20571;-50
2022/05/15 05:58:33;;;;;;;9.65;8.10;;;;;;;18.72;64.14;93698.56;5109334;28;20110;-51
2022/05/15 06:00:58;;;;;;;10.98;7.82;;;;;;;19.10;64.12;93694.81;5109305;28;20043;-50
2022/05/15 06:06:08;;;;;;;10.60;7.38;;;;;;;19.61;61.83;93696.81;5107052;28;20089;-49
2022/05/15 06:08:33;;;;;;;6.90;6.20;;;;;;;19.80;60.63;93701.50;5102698;28;20059;-48
2022/05/15 06:10:59;;;;;;;7.65;6.65;;;;;;;19.56;59.52;93690.22;5094248;28;20016;-52
2022/05/15 06:13:25;;;;;;;6.60;5.72;;;;;;;19.29;60.36;93681.41;5094599;28;20024;-53
2022/05/15 06:15:52;;;;;;;6.00;5.47;;;;;;;19.68;58.69;93695.88;5094522;28;20019;-51
2022/05/15 06:18:18;;;;;;;8.07;4.88;;;;;;;19.88;58.08;93699.94;5098681;28;20385;-47
2022/05/15 06:20:43;;;;;;;8.40;5.45;;;;;;;20.09;56.29;93685.16;5111929;28;20027;-47
2022/05/15 06:23:08;;;;;;;7.40;6.22;;;;;;;20.02;56.41;93694.50;5114347;28;20019;-50
2022/05/15 06:25:34;;;;;;;10.63;5.72;;;;;;;20.21;57.43;93688.72;5114507;27;20024;-48
2022/05/15 06:28:00;;;;;;;8.02;6.07;;;;;;;20.30;58.25;93688.63;5114280;28;20023;-49
2022/05/15 06:30:26;;;;;;;13.80;5.30;;;;;;;20.18;56.93;93689.94;5114639;28;20019;-49
2022/05/15 06:32:51;;;;;;;7.45;4.95;;;;;;;20.53;57.21;93690.00;5112470;28;20127;-50
2022/05/15 06:35:17;;;;;;;5.53;4.90;;;;;;;21.13;52.43;93688.03;5105643;28;20020;-51
2022/05/15 06:37:42;;;;;;;5.22;4.28;;;;;;;21.62;51.64;93680.31;5105146;28;20055;-51
2022/05/15 06:40:09;;;;;;;5.07;4.55;;;;;;;22.08;48.84;93685.78;5095654;28;20558;-52
2022/05/15 06:42:34;;;;;;;6.10;4.53;;;;;;;22.56;49.34;93679.97;5091690;28;20089;-51
2022/05/15 06:45:00;;;;;;;6.40;4.50;;;;;;;22.88;48.07;93689.41;5097030;28;20020;-54
2022/05/15 06:47:26;;;;;;;5.07;4.07;;;;;;;23.74;46.30;93687.47;5103389;28;20035;-53
2022/05/15 06:49:51;;;;;;;4.30;3.53;;;;;;;24.52;43.53;93686.97;5093294;28;20570;-52
2022/05/15 06:52:17;;;;;;;5.22;3.58;;;;;;;24.95;42.20;93681.19;5092293;28;20466;-52
2022/05/15 06:54:42;;;;;;;3.92;3.53;;;;;;;24.52;41.37;93689.78;5092681;28;20028;-52
2022/05/15 06:59:52;;;;;;;8.02;3.72;;;;;;;25.30;41.06;93690.53;5097194;28;20106;-54
2022/05/15 07:02:18;;;;;;;12.27;4.00;;;;;;;25.34;40.85;93687.13;5113203;28;20016;-50
2022/05/15 07:04:43;;;;;;;4.43;3.13;;;;;;;26.20;39.12;93687.97;5113514;28;20028;-54
2022/05/15 07:07:09;;;;;;;4.10;3.03;;;;;;;27.44;36.00;93694.09;5113277;28;20027;-50
2022/05/15 07:09:35;;;;;;;4.13;2.70;;;;;;;28.34;34.40;93692.88;5106667;28;20063;-54
2022/05/15 07:12:02;;;;;;;5.15;3.42;;;;;;;28.80;35.12;93690.78;5104420;28;20040;-52
2022/05/15 07:14:28;;;;;;;7.78;3.60;;;;;;;29.75;33.63;93669.34;5098252;28;20030;-53
2022/05/15 07:16:54;;;;;;;10.27;3.50;;;;;;;30.79;30.48;93681.84;5105277;28;20027;-46
2022/05/15 07:19:19;;;;;;;4.18;2.85;;;;;;;31.51;29.62;93688.41;5101279;28;20023;-46
2022/05/15 07:21:45;;;;;;;5.40;2.70;;;;;;;31.63;27.72;93676.50;5109896;28;20149;-47
2022/05/15 07:24:11;;;;;;;9.57;2.97;;;;;;;31.94;28.10;93676.41;5096767;28;20031;-46
2022/05/15 07:26:41;;;;;;;4.25;2.75;;;;;;;32.69;27.23;93671.91;5102048;28;20024;-45
2022/05/15 07:29:07;;;;;;;3.40;2.63;;;;;;;33.08;26.67;93673.94;5099936;28;20035;-48
2022/05/15 07:31:32;;;;;;;8.02;2.92;;;;;;;33.54;24.81;93674.53;5113524;28;20751;-51
2022/05/15 07:33:58;;;;;;;3.00;2.05;;;;;;;33.58;23.94;93674.59;5107816;28;20019;-51
2022/05/15 07:36:23;;;;;;;4.13;2.08;;;;;;;34.04;24.37;93685.84;5098990;28;20431;-49
2022/05/15 07:38:49;;;;;;;3.85;2.30;;;;;;;34.45;23.86;93677.59;5101902;28;20066;-52
2022/05/15 07:41:14;;;;;;;3.58;2.50;;;;;;;34.57;24.17;93680.56;5102592;28;20034;-54
2022/05/15 07:43:40;;;;;;;4.65;2.20;;;;;;;34.78;23.74;93680.03;5106048;28;20100;-53
2022/05/15 07:46:06;;;;;;;4.93;2.45;;;;;;;35.38;22.68;93688.31;5112781;28;20019;-52
2022/05/15 07:48:31;;;;;;;3.78;2.65;;;;;;;34.99;22.76;93678.00;5102533;28;20028;-54
2022/05/15 07:50:57;;;;;;;3.00;2.20;;;;;;;35.44;22.17;93679.72;5092784;28;20045;-54
2022/05/15 07:53:23;;;;;;;2.63;1.90;;;;;;;35.64;22.67;93679.81;5103608;28;20417;-51
2022/05/15 07:55:48;;;;;;;14.23;2.50;;;;;;;34.66;23.13;93685.69;5090190;28;20107;-49
2022/05/15 07:58:14;;;;;;;13.32;2.85;;;;;;;35.03;22.98;93684.53;5097460;28;20428;-52
2022/05/15 08:00:39;;;;;;;5.57;2.17;;;;;;;35.01;23.13;93680.91;5109974;28;20123;-50
2022/05/15 08:03:10;;;;;;;2.45;2.00;;;;;;;35.11;22.80;93680.97;5106737;28;20024;-48
2022/05/15 08:08:22;;;;;;;2.45;2.10;;;;;;;34.53;22.17;93678.41;5090382;28;20574;-52
2022/05/15 08:10:49;;;;;;;3.28;1.90;;;;;;;34.92;21.62;93677.25;5089955;28;20020;-50
2022/05/15 08:13:18;;;;;;;2.92;1.90;;;;;;;34.65;22.88;93686.41;5089817;28;20035;-48
2022/05/15 08:15:44;;;;;;;4.85;1.80;;;;;;;34.75;22.22;93690.06;5090202;28;20125;-49
2022/05/15 08:23:49;;;;;;;2.00;1.75;;;;;;;35.54;21.90;93696.31;5109791;28;20066;-50
2022/05/15 08:26:14;;;;;;;4.57;1.70;;;;;;;35.50;21.00;93694.13;5109803;28;20059;-49
2022/05/15 08:28:40;;;;;;;6.63;1.88;;;;;;;34.52;21.54;93685.59;5109874;28;20052;-48
2022/05/15 08:31:08;;;;;;;6.65;2.03;;;;;;;34.26;22.95;93688.91;5108443;28;20443;-52
2022/05/15 08:33:34;;;;;;;6.13;1.70;;;;;;;34.82;22.06;93694.41;5110287;28;20100;-47
2022/05/15 08:35:59;;;;;;;2.65;1.70;;;;;;;34.06;22.11;93694.47;5109891;28;20024;-51
2022/05/15 08:38:25;;;;;;;4.95;1.73;;;;;;;34.80;21.90;93693.69;5110011;28;20726;-55
2022/05/15 08:41:17;;;;;;;2.05;1.77;;;;;;;34.61;22.35;93694.97;5109603;27;20404;-49
2022/05/15 08:43:45;;;;;;;4.03;1.73;;;;;;;34.56;22.52;93707.81;5108953;28;20031;-47
2022/05/15 08:46:31;;;;;;;2.88;1.98;;;;;;;33.74;22.81;93701.97;5090472;28;20536;-49
2022/05/15 08:49:35;;;;;;;4.35;2.00;;;;;;;33.21;23.92;93709.16;5089213;28;20418;-57
2022/05/15 08:52:11;;;;;;;5.55;2.40;;;;;;;32.75;25.15;93712.75;5075909;28;20042;-49
2022/05/15 08:55:10;;;;;;;10.98;2.75;;;;;;;32.54;25.13;93711.00;5088958;28;20442;-53
2022/05/15 08:57:56;;;;;;;9.93;2.60;;;;;;;33.04;25.48;93705.34;5085490;28;20036;-50
2022/05/15 09:00:33;;;;;;;6.15;2.08;;;;;;;32.87;25.06;93707.25;5109048;28;20040;-50
2022/05/15 09:03:23;;;;;;;13.55;1.90;;;;;;;32.88;23.37;93707.94;5105828;28;20502;-54
2022/05/15 09:06:19;;;;;;;6.90;1.60;;;;;;;33.00;22.86;93708.16;5111354;28;20020;-53
2022/05/15 09:09:09;;;;;;;7.72;1.40;;;;;;;33.62;22.56;93714.00;5109988;28;20024;-50
2022/05/15 09:11:36;;;;;;;5.15;1.55;;;;;;;33.46;21.09;93717.34;5109784;28;20027;-50
2022/05/15 09:14:33;;;;;;;2.15;1.52;;;;;;;33.39;22.73;93709.38;5110645;28;20534;-52
2022/05/15 09:17:27;;;;;;;4.15;1.58;;;;;;;33.45;23.45;93709.47;5111060;28;20028;-56
2022/05/15 09:19:56;;;;;;;2.83;2.00;;;;;;;32.75;24.46;93712.03;5105463;28;20039;-49
2022/05/15 09:22:26;;;;;;;4.03;1.83;;;;;;;31.49;25.50;93710.47;5107301;28;20088;-57
2022/05/15 09:24:52;;;;;;;6.50;2.20;;;;;;;30.85;26.34;93712.59;5106932;28;20027;-54
2022/05/15 09:27:21;;;;;;;3.63;2.00;;;;;;;30.26;26.99;93713.31;5108146;28;20035;-51
2022/05/15 09:29:58;;;;;;;2.58;1.42;;;;;;;29.25;27.15;93693.53;5108641;28;20102;-55
2022/05/15 09:32:39;;;;;;;4.63;1.70;;;;;;;28.13;27.23;93707.81;5110036;28;20588;-51
2022/05/15 09:35:30;;;;;;;3.47;1.73;;;;;;;27.47;28.41;93709.06;5109864;28;20057;-51
2022/05/15 09:43:32;;;;;;;3.63;1.48;;;;;;;27.39;30.81;93706.69;5108752;28;20420;-49
2022/05/15 09:46:06;;;;;;;2.35;1.63;;;;;;;27.05;31.34;93716.72;5108217;28;20023;-49
2022/05/15 09:48:36;;;;;;;7.50;2.03;;;;;;;27.04;31.63;93718.13;5108199;28;20024;-50
2022/05/15 09:51:04;;;;;;;2.90;1.75;;;;;;;27.05;31.18;93711.78;5106808;28;20020;-48
2022/05/15 09:53:43;;;;;;;6.53;1.88;;;;;;;27.35;30.05;93705.78;5104766;28;20500;-50
2022/05/15 09:56:21;;;;;;;9.48;2.13;;;;;;;27.68;30.63;93711.22;5087184;28;20032;-54
2022/05/15 09:58:56;;;;;;;8.50;2.63;;;;;;;28.03;29.51;93705.34;5099826;28;20432;-49
2022/05/15 10:01:33;;;;;;;8.18;2.15;;;;;;;28.37;28.82;93706.47;5106243;28;20039;-50
2022/05/15 10:04:01;;;;;;;4.07;2.45;;;;;;;28.95;28.64;93707.59;5100199;28;20051;-52
2022/05/15 10:06:37;;;;;;;5.53;2.80;;;;;;;30.02;28.54;93701.34;5090731;28;20031;-51
2022/05/15 10:09:10;;;;;;;4.43;1.42;;;;;;;30.35;27.18;93697.91;5108128;28;20508;-48
2022/05/15 10:11:40;;;;;;;3.90;1.63;;;;;;;30.77;27.00;93701.75;5107205;28;20103;-49
2022/05/15 10:14:07;;;;;;;4.13;1.73;;;;;;;31.69;25.24;93696.56;5094358;28;20555;-52
2022/05/15 10:16:44;;;;;;;3.88;1.85;;;;;;;32.18;24.78;93702.50;5086024;28;20134;-47
2022/05/15 10:19:19;;;;;;;2.55;1.73;;;;;;;32.35;23.41;93700.66;5086400;28;20436;-50
2022/05/15 10:21:49;;;;;;;6.57;1.58;;;;;;;33.27;24.32;93697.78;5100626;28;20028;-48
2022/05/15 10:24:18;;;;;;;4.53;1.45;;;;;;;33.77;22.70;93686.94;5107970;28;20126;-51
2022/05/15 10:27:10;;;;;;;2.88;1.60;;;;;;;33.97;22.85;93695.03;5106529;28;20031;-49
2022/05/15 10:29:42;;;;;;;6.75;1.50;;;;;;;33.83;22.83;93694.91;5107860;28;20069;-49
2022/05/15 10:32:20;;;;;;;3.00;1.90;;;;;;;33.86;22.80;93699.94;5107882;28;20031;-48
2022/05/15 10:34:45;;;;;;;2.05;1.73;;;;;;;34.07;22.63;93698.03;5106287;28;20042;-51
2022/05/15 10:37:20;;;;;;;4.18;1.60;;;;;;;34.11;21.57;93698.78;5106220;28;20036;-50
2022/05/15 10:39:54;;;;;;;6.55;1.98;;;;;;;34.84;22.75;93690.81;5110216;28;20511;-48
2022/05/15 10:42:54;;;;;;;4.35;1.70;;;;;;;34.50;21.88;93691.28;5110249;28;20027;-51
2022/05/15 10:45:52;;;;;;;4.75;2.13;;;;;;;33.29;23.32;93689.22;5093490;28;20035;-51
2022/05/15 10:48:40;;;;;;;5.32;2.10;;;;;;;32.70;23.60;93693.38;5105040;28;20012;-49
2022/05/15 10:51:17;;;;;;;8.35;2.38;;;;;;;33.45;24.90;93687.28;5108139;28;20062;-50
2022/05/15 10:57:24;;;;;;;2.78;1.70;;;;;;;33.43;22.86;93687.25;5104680;28;20035;-51
2022/05/15 11:00:10;;;;;;;8.13;1.85;;;;;;;32.91;24.77;93692.25;5090761;28;20068;-50
2022/05/15 11:03:14;;;;;;;3.28;1.90;;;;;;;32.29;24.16;93689.16;5090037;28;20047;-49
2022/05/15 11:05:56;;;;;;;2.47;1.90;;;;;;;32.31;26.07;93688.44;5090883;28;20042;-49
2022/05/15 11:08:24;;;;;;;5.07;1.80;;;;;;;31.12;25.64;93697.56;5089799;28;20043;-48
2022/05/15 11:11:08;;;;;;;2.58;1.85;;;;;;;30.25;25.73;93694.78;5105899;28;20115;-48
2022/05/15 11:14:04;;;;;;;6.30;1.80;;;;;;;29.04;28.51;93697.19;5110586;28;20043;-49
2022/05/15 11:16:48;;;;;;;3.28;2.08;;;;;;;28.39;29.82;93694.47;5109814;28;20032;-48
2022/05/15 11:19:36;;;;;;;4.28;2.10;;;;;;;27.47;30.68;93697.72;5111073;28;20076;-47
2022/05/15 11:22:18;;;;;;;3.97;2.10;;;;;;;27.31;32.72;93697.84;5108063;28;20038;-47
2022/05/15 11:25:06;;;;;;;2.83;1.83;;;;;;;27.82;29.99;93679.78;5101369;28;20517;-48
2022/05/15 11:27:41;;;;;;;;;;;;;;;27.82;31.51;93680.50;5106563;28;20181;-49
2022/05/15 11:30:37;;;;;;;6.32;2.30;;;;;;;27.21;31.87;93679.75;5097109;28;19970;-53
2022/05/15 11:33:03;;;;;;;6.28;2.70;;;;;;;26.97;33.85;93694.50;5093551;28;20188;-49
2022/05/15 11:35:35;;;;;;;4.80;2.13;;;;;;;27.30;34.13;93687.16;5099871;28;20031;-51
2022/05/15 11:38:05;;;;;;;1.90;1.80;;;;;;;27.01;33.00;93685.41;5100930;28;20035;-50
2022/05/15 11:40:36;;;;;;;4.03;2.05;;;;;;;26.70;32.94;93688.47;5102181;28;20027;-49
2022/05/15 11:43:33;;;;;;;3.35;1.95;;;;;;;26.48;32.92;93691.19;5100783;28;20036;-48
2022/05/15 11:45:59;;;;;;;5.35;2.35;;;;;;;26.19;32.22;93692.16;5100440;28;20031;-48
2022/05/15 11:48:24;;;;;;;10.02;2.47;;;;;;;26.11;32.61;93680.53;5101821;28;20484;-48
2022/05/15 11:50:59;;;;;;;4.07;2.50;;;;;;;26.59;35.88;93663.97;5101800;28;20012;-51
2022/05/15 11:53:35;;;;;;;5.00;1.80;;;;;;;26.72;33.10;93672.28;5100940;28;20035;-49
2022/05/15 11:56:37;;;;;;;10.20;2.40;;;;;;;26.61;34.35;93659.13;5101582;28;20077;-48
2022/05/15 11:59:15;;;;;;;2.38;1.92;;;;;;;26.78;35.07;93671.81;5103096;28;20027;-47
2022/05/15 12:01:41;;;;;;;3.92;2.25;;;;;;;26.85;32.46;93665.72;5100159;28;20424;-47
2022/05/15 12:04:25;;;;;;;13.95;2.72;;;;;;;27.10;34.28;93660.91;5100911;28;20080;-48
2022/05/15 12:06:56;;;;;;;4.30;2.03;;;;;;;27.32;34.00;93668.13;5102541;28;20031;-51